sensor_id;sensor_type;location;lat;lon;timestamp;temperature;humidity
43995;DHT22;51687;52.160;5.298;2022-10-04T00:00:25;16.90;68.20
43995;DHT22;51687;52.160;5.298;2022-10-04T00:03:03;16.90;68.10
43995;DHT22;51687;52.160;5.298;2022-10-04T00:05:34;16.90;68.10
43995;DHT22;51687;52.160;5.298;2022-10-04T00:08:04;16.90;68.00
43995;DHT22;51687;52.160;5.298;2022-10-04T00:10:33;16.90;67.90
43995;DHT22;51687;52.160;5.298;2022-10-04T00:13:04;16.90;68.00
43995;DHT22;51687;52.160;5.298;2022-10-04T00:15:34;16.80;68.10
43995;DHT22;51687;52.160;5.298;2022-10-04T00:25:50;16.80;68.40
43995;DHT22;51687;52.160;5.298;2022-10-04T00:31:23;16.80;68.50
43995;DHT22;51687;52.160;5.298;2022-10-04T00:33:53;16.80;68.40
43995;DHT22;51687;52.160;5.298;2022-10-04T00:44:17;16.80;68.40
43995;DHT22;51687;52.160;5.298;2022-10-04T00:46:47;16.80;68.40
43995;DHT22;51687;52.160;5.298;2022-10-04T00:49:20;16.80;68.50
43995;DHT22;51687;52.160;5.298;2022-10-04T00:52:02;16.80;68.50
43995;DHT22;51687;52.160;5.298;2022-10-04T00:54:36;16.80;68.50
43995;DHT22;51687;52.160;5.298;2022-10-04T00:57:16;16.80;68.50
43995;DHT22;51687;52.160;5.298;2022-10-04T00:59:57;16.80;68.60
43995;DHT22;51687;52.160;5.298;2022-10-04T01:05:33;16.80;68.60
43995;DHT22;51687;52.160;5.298;2022-10-04T01:08:11;16.70;68.40
43995;DHT22;51687;52.160;5.298;2022-10-04T01:10:49;16.80;68.50
43995;DHT22;51687;52.160;5.298;2022-10-04T01:13:30;16.80;68.50
43995;DHT22;51687;52.160;5.298;2022-10-04T01:18:40;16.80;68.50
43995;DHT22;51687;52.160;5.298;2022-10-04T01:21:08;16.70;68.30
43995;DHT22;51687;52.160;5.298;2022-10-04T01:23:47;16.70;68.20
43995;DHT22;51687;52.160;5.298;2022-10-04T01:29:14;16.70;68.00
43995;DHT22;51687;52.160;5.298;2022-10-04T01:32:02;16.70;68.10
43995;DHT22;51687;52.160;5.298;2022-10-04T01:34:29;16.70;68.10
43995;DHT22;51687;52.160;5.298;2022-10-04T01:36:58;16.70;68.00
43995;DHT22;51687;52.160;5.298;2022-10-04T01:39:27;16.70;68.00
43995;DHT22;51687;52.160;5.298;2022-10-04T01:42:06;16.70;67.90
43995;DHT22;51687;52.160;5.298;2022-10-04T01:47:23;16.70;67.80
43995;DHT22;51687;52.160;5.298;2022-10-04T01:49:53;16.70;67.80
43995;DHT22;51687;52.160;5.298;2022-10-04T01:52:30;16.70;67.80
43995;DHT22;51687;52.160;5.298;2022-10-04T01:55:02;16.70;67.60
43995;DHT22;51687;52.160;5.298;2022-10-04T01:57:42;16.70;68.10
43995;DHT22;51687;52.160;5.298;2022-10-04T02:00:11;16.60;67.20
43995;DHT22;51687;52.160;5.298;2022-10-04T02:02:49;16.60;67.10
43995;DHT22;51687;52.160;5.298;2022-10-04T02:05:25;16.60;67.20
43995;DHT22;51687;52.160;5.298;2022-10-04T02:07:54;16.60;67.20
43995;DHT22;51687;52.160;5.298;2022-10-04T02:10:23;16.60;67.10
43995;DHT22;51687;52.160;5.298;2022-10-04T02:12:52;16.60;67.00
43995;DHT22;51687;52.160;5.298;2022-10-04T02:15:20;16.60;67.00
43995;DHT22;51687;52.160;5.298;2022-10-04T02:17:48;16.60;67.00
43995;DHT22;51687;52.160;5.298;2022-10-04T02:20:20;16.60;66.90
43995;DHT22;51687;52.160;5.298;2022-10-04T02:22:52;16.60;66.80
43995;DHT22;51687;52.160;5.298;2022-10-04T02:25:22;16.50;66.90
43995;DHT22;51687;52.160;5.298;2022-10-04T02:27:51;16.50;67.00
43995;DHT22;51687;52.160;5.298;2022-10-04T02:30:19;16.40;67.00
43995;DHT22;51687;52.160;5.298;2022-10-04T02:32:46;16.40;67.00
43995;DHT22;51687;52.160;5.298;2022-10-04T02:35:29;16.30;67.10
43995;DHT22;51687;52.160;5.298;2022-10-04T02:38:06;16.30;67.20
43995;DHT22;51687;52.160;5.298;2022-10-04T02:40:55;16.30;67.30
43995;DHT22;51687;52.160;5.298;2022-10-04T02:46:27;16.20;67.40
43995;DHT22;51687;52.160;5.298;2022-10-04T02:49:00;16.20;67.40
43995;DHT22;51687;52.160;5.298;2022-10-04T02:51:41;16.20;67.40
43995;DHT22;51687;52.160;5.298;2022-10-04T02:54:21;16.10;67.50
43995;DHT22;51687;52.160;5.298;2022-10-04T02:56:55;16.10;67.50
43995;DHT22;51687;52.160;5.298;2022-10-04T02:59:22;16.10;67.50
43995;DHT22;51687;52.160;5.298;2022-10-04T03:01:55;16.10;67.50
43995;DHT22;51687;52.160;5.298;2022-10-04T03:04:37;16.00;67.50
43995;DHT22;51687;52.160;5.298;2022-10-04T03:07:06;16.00;67.50
43995;DHT22;51687;52.160;5.298;2022-10-04T03:09:35;16.00;67.50
43995;DHT22;51687;52.160;5.298;2022-10-04T03:12:03;16.00;67.60
43995;DHT22;51687;52.160;5.298;2022-10-04T03:14:31;15.90;67.50
43995;DHT22;51687;52.160;5.298;2022-10-04T03:17:00;15.90;67.50
43995;DHT22;51687;52.160;5.298;2022-10-04T03:19:31;15.90;67.50
43995;DHT22;51687;52.160;5.298;2022-10-04T03:22:11;15.90;67.60
43995;DHT22;51687;52.160;5.298;2022-10-04T03:24:45;15.80;67.70
43995;DHT22;51687;52.160;5.298;2022-10-04T03:27:19;15.80;67.70
43995;DHT22;51687;52.160;5.298;2022-10-04T03:29:47;15.80;67.70
43995;DHT22;51687;52.160;5.298;2022-10-04T03:32:16;15.80;67.60
43995;DHT22;51687;52.160;5.298;2022-10-04T03:35:05;15.80;67.50
43995;DHT22;51687;52.160;5.298;2022-10-04T03:37:35;15.80;67.40
43995;DHT22;51687;52.160;5.298;2022-10-04T03:40:04;15.70;67.50
43995;DHT22;51687;52.160;5.298;2022-10-04T03:42:35;15.70;67.50
43995;DHT22;51687;52.160;5.298;2022-10-04T03:45:07;15.70;67.40
43995;DHT22;51687;52.160;5.298;2022-10-04T03:47:43;15.70;67.50
43995;DHT22;51687;52.160;5.298;2022-10-04T03:50:21;15.70;67.50
43995;DHT22;51687;52.160;5.298;2022-10-04T03:52:55;15.70;67.50
43995;DHT22;51687;52.160;5.298;2022-10-04T03:55:32;15.70;67.30
43995;DHT22;51687;52.160;5.298;2022-10-04T03:58:00;15.70;67.20
43995;DHT22;51687;52.160;5.298;2022-10-04T04:00:27;15.70;67.20
43995;DHT22;51687;52.160;5.298;2022-10-04T04:03:00;15.60;67.20
43995;DHT22;51687;52.160;5.298;2022-10-04T04:05:34;15.60;67.20
43995;DHT22;51687;52.160;5.298;2022-10-04T04:08:12;15.60;67.20
43995;DHT22;51687;52.160;5.298;2022-10-04T04:10:49;15.60;67.20
43995;DHT22;51687;52.160;5.298;2022-10-04T04:15:56;15.50;67.30
43995;DHT22;51687;52.160;5.298;2022-10-04T04:18:29;15.50;67.30
43995;DHT22;51687;52.160;5.298;2022-10-04T04:20:59;15.50;67.20
43995;DHT22;51687;52.160;5.298;2022-10-04T04:23:33;15.50;67.60
43995;DHT22;51687;52.160;5.298;2022-10-04T04:26:22;15.50;66.90
43995;DHT22;51687;52.160;5.298;2022-10-04T04:28:54;15.50;67.00
43995;DHT22;51687;52.160;5.298;2022-10-04T04:31:35;15.50;67.00
43995;DHT22;51687;52.160;5.298;2022-10-04T04:34:23;15.40;66.90
43995;DHT22;51687;52.160;5.298;2022-10-04T04:36:50;15.40;66.90
43995;DHT22;51687;52.160;5.298;2022-10-04T04:39:23;15.40;66.90
43995;DHT22;51687;52.160;5.298;2022-10-04T04:42:17;15.40;66.90
43995;DHT22;51687;52.160;5.298;2022-10-04T04:47:28;15.40;67.10
43995;DHT22;51687;52.160;5.298;2022-10-04T04:49:57;15.40;67.00
43995;DHT22;51687;52.160;5.298;2022-10-04T04:52:28;15.30;67.00
43995;DHT22;51687;52.160;5.298;2022-10-04T04:54:55;15.30;67.00
43995;DHT22;51687;52.160;5.298;2022-10-04T04:57:22;15.30;66.90
43995;DHT22;51687;52.160;5.298;2022-10-04T04:59:53;15.30;66.90
43995;DHT22;51687;52.160;5.298;2022-10-04T05:02:35;15.30;66.80
43995;DHT22;51687;52.160;5.298;2022-10-04T05:08:11;15.30;66.90
43995;DHT22;51687;52.160;5.298;2022-10-04T05:18:59;15.30;67.10
43995;DHT22;51687;52.160;5.298;2022-10-04T05:21:32;15.40;66.80
43995;DHT22;51687;52.160;5.298;2022-10-04T05:24:32;15.50;66.70
43995;DHT22;51687;52.160;5.298;2022-10-04T05:27:04;15.50;66.50
43995;DHT22;51687;52.160;5.298;2022-10-04T05:29:34;15.60;66.30
43995;DHT22;51687;52.160;5.298;2022-10-04T05:34:49;15.70;67.10
43995;DHT22;51687;52.160;5.298;2022-10-04T05:37:59;15.80;66.80
43995;DHT22;51687;52.160;5.298;2022-10-04T05:40:44;16.00;66.80
43995;DHT22;51687;52.160;5.298;2022-10-04T05:43:28;16.20;65.70
43995;DHT22;51687;52.160;5.298;2022-10-04T05:46:25;16.30;65.10
43995;DHT22;51687;52.160;5.298;2022-10-04T05:49:05;16.40;64.90
43995;DHT22;51687;52.160;5.298;2022-10-04T05:51:47;16.50;64.20
43995;DHT22;51687;52.160;5.298;2022-10-04T05:54:18;16.60;63.90
43995;DHT22;51687;52.160;5.298;2022-10-04T06:03:08;16.80;62.80
43995;DHT22;51687;52.160;5.298;2022-10-04T06:05:59;16.80;62.40
43995;DHT22;51687;52.160;5.298;2022-10-04T06:08:44;16.70;62.40
43995;DHT22;51687;52.160;5.298;2022-10-04T06:11:31;16.70;62.60
43995;DHT22;51687;52.160;5.298;2022-10-04T06:14:13;16.60;62.60
43995;DHT22;51687;52.160;5.298;2022-10-04T06:22:25;16.40;63.00
43995;DHT22;51687;52.160;5.298;2022-10-04T06:24:56;16.30;63.20
43995;DHT22;51687;52.160;5.298;2022-10-04T06:30:18;16.20;63.40
43995;DHT22;51687;52.160;5.298;2022-10-04T06:38:23;16.10;63.80
43995;DHT22;51687;52.160;5.298;2022-10-04T06:41:19;16.10;64.00
43995;DHT22;51687;52.160;5.298;2022-10-04T06:46:56;16.00;64.40
43995;DHT22;51687;52.160;5.298;2022-10-04T06:54:45;16.00;64.80
43995;DHT22;51687;52.160;5.298;2022-10-04T06:57:42;15.90;65.20
43995;DHT22;51687;52.160;5.298;2022-10-04T07:00:23;15.90;65.60
43995;DHT22;51687;52.160;5.298;2022-10-04T07:05:27;15.80;66.40
43995;DHT22;51687;52.160;5.298;2022-10-04T07:08:33;15.70;66.80
43995;DHT22;51687;52.160;5.298;2022-10-04T07:13:45;15.70;67.20
43995;DHT22;51687;52.160;5.298;2022-10-04T07:16:41;15.60;67.40
43995;DHT22;51687;52.160;5.298;2022-10-04T07:19:27;15.60;67.50
43995;DHT22;51687;52.160;5.298;2022-10-04T07:25:00;15.50;67.70
43995;DHT22;51687;52.160;5.298;2022-10-04T07:27:35;15.50;68.00
43995;DHT22;51687;52.160;5.298;2022-10-04T07:30:14;15.50;68.00
43995;DHT22;51687;52.160;5.298;2022-10-04T07:32:46;15.50;68.10
43995;DHT22;51687;52.160;5.298;2022-10-04T07:35:35;15.50;68.40
43995;DHT22;51687;52.160;5.298;2022-10-04T07:40:50;15.50;68.60
43995;DHT22;51687;52.160;5.298;2022-10-04T07:43:31;15.50;68.70
43995;DHT22;51687;52.160;5.298;2022-10-04T07:49:15;15.50;68.90
43995;DHT22;51687;52.160;5.298;2022-10-04T07:52:23;15.50;69.20
43995;DHT22;51687;52.160;5.298;2022-10-04T07:55:31;15.50;69.40
43995;DHT22;51687;52.160;5.298;2022-10-04T08:01:00;15.60;69.10
43995;DHT22;51687;52.160;5.298;2022-10-04T08:03:54;15.60;69.10
43995;DHT22;51687;52.160;5.298;2022-10-04T08:06:42;15.60;69.30
43995;DHT22;51687;52.160;5.298;2022-10-04T08:09:36;15.60;69.10
43995;DHT22;51687;52.160;5.298;2022-10-04T08:14:55;15.60;69.20
43995;DHT22;51687;52.160;5.298;2022-10-04T08:28:54;15.70;69.80
43995;DHT22;51687;52.160;5.298;2022-10-04T08:32:06;15.70;69.80
43995;DHT22;51687;52.160;5.298;2022-10-04T08:34:44;15.70;69.40
43995;DHT22;51687;52.160;5.298;2022-10-04T08:51:34;15.90;69.60
43995;DHT22;51687;52.160;5.298;2022-10-04T08:57:12;15.90;68.90
43995;DHT22;51687;52.160;5.298;2022-10-04T09:00:19;16.00;69.10
43995;DHT22;51687;52.160;5.298;2022-10-04T09:20:14;16.10;69.10
43995;DHT22;51687;52.160;5.298;2022-10-04T09:31:39;16.20;69.70
43995;DHT22;51687;52.160;5.298;2022-10-04T09:37:29;16.30;69.30
43995;DHT22;51687;52.160;5.298;2022-10-04T09:51:12;16.40;68.80
43995;DHT22;51687;52.160;5.298;2022-10-04T10:08:18;16.60;69.20
43995;DHT22;51687;52.160;5.298;2022-10-04T10:11:18;16.60;68.60
43995;DHT22;51687;52.160;5.298;2022-10-04T10:19:43;16.70;67.70
43995;DHT22;51687;52.160;5.298;2022-10-04T10:22:39;16.70;67.50
43995;DHT22;51687;52.160;5.298;2022-10-04T10:25:11;16.80;67.80
43995;DHT22;51687;52.160;5.298;2022-10-04T10:30:40;16.90;67.50
43995;DHT22;51687;52.160;5.298;2022-10-04T10:36:32;17.00;67.20
43995;DHT22;51687;52.160;5.298;2022-10-04T10:39:13;17.00;67.30
43995;DHT22;51687;52.160;5.298;2022-10-04T10:54:06;17.20;68.10
43995;DHT22;51687;52.160;5.298;2022-10-04T10:56:54;17.20;68.30
43995;DHT22;51687;52.160;5.298;2022-10-04T11:13:27;17.50;66.20
43995;DHT22;51687;52.160;5.298;2022-10-04T11:22:19;17.60;65.00
43995;DHT22;51687;52.160;5.298;2022-10-04T11:39:57;17.80;63.80
43995;DHT22;51687;52.160;5.298;2022-10-04T11:48:29;17.90;63.80
43995;DHT22;51687;52.160;5.298;2022-10-04T11:51:22;17.90;61.90
43995;DHT22;51687;52.160;5.298;2022-10-04T11:56:40;18.00;63.00
43995;DHT22;51687;52.160;5.298;2022-10-04T11:59:24;18.00;64.20
43995;DHT22;51687;52.160;5.298;2022-10-04T12:02:12;18.00;62.60
43995;DHT22;51687;52.160;5.298;2022-10-04T12:07:53;18.10;61.40
43995;DHT22;51687;52.160;5.298;2022-10-04T12:13:20;18.20;61.30
43995;DHT22;51687;52.160;5.298;2022-10-04T12:16:16;18.20;61.40
43995;DHT22;51687;52.160;5.298;2022-10-04T12:22:17;18.30;60.50
43995;DHT22;51687;52.160;5.298;2022-10-04T12:30:59;18.40;60.20
43995;DHT22;51687;52.160;5.298;2022-10-04T12:52:20;18.60;59.40
43995;DHT22;51687;52.160;5.298;2022-10-04T13:10:53;19.10;59.00
43995;DHT22;51687;52.160;5.298;2022-10-04T13:13:40;19.40;57.80
43995;DHT22;51687;52.160;5.298;2022-10-04T13:16:26;19.40;58.20
43995;DHT22;51687;52.160;5.298;2022-10-04T13:19:37;19.40;56.70
43995;DHT22;51687;52.160;5.298;2022-10-04T13:33:23;19.50;57.00
43995;DHT22;51687;52.160;5.298;2022-10-04T13:47:22;19.50;56.90
43995;DHT22;51687;52.160;5.298;2022-10-04T13:53:11;19.60;57.70
43995;DHT22;51687;52.160;5.298;2022-10-04T13:59:08;19.50;56.70
43995;DHT22;51687;52.160;5.298;2022-10-04T14:18:42;19.50;57.60
43995;DHT22;51687;52.160;5.298;2022-10-04T14:29:41;19.50;58.30
43995;DHT22;51687;52.160;5.298;2022-10-04T14:34:58;19.50;58.20
43995;DHT22;51687;52.160;5.298;2022-10-04T14:44:07;19.60;59.20
43995;DHT22;51687;52.160;5.298;2022-10-04T14:46:58;19.60;59.40
43995;DHT22;51687;52.160;5.298;2022-10-04T14:49:51;19.50;59.40
43995;DHT22;51687;52.160;5.298;2022-10-04T14:56:12;19.50;59.20
43995;DHT22;51687;52.160;5.298;2022-10-04T14:58:33;19.60;59.50
43995;DHT22;51687;52.160;5.298;2022-10-04T15:06:59;19.60;60.00
43995;DHT22;51687;52.160;5.298;2022-10-04T15:15:37;19.60;60.30
43995;DHT22;51687;52.160;5.298;2022-10-04T15:18:24;19.60;59.80
43995;DHT22;51687;52.160;5.298;2022-10-04T15:21:19;19.60;60.70
43995;DHT22;51687;52.160;5.298;2022-10-04T15:24:25;19.70;60.30
43995;DHT22;51687;52.160;5.298;2022-10-04T15:27:17;19.60;60.40
43995;DHT22;51687;52.160;5.298;2022-10-04T15:30:12;19.60;59.90
43995;DHT22;51687;52.160;5.298;2022-10-04T15:38:49;19.60;60.40
43995;DHT22;51687;52.160;5.298;2022-10-04T15:41:41;19.60;60.70
43995;DHT22;51687;52.160;5.298;2022-10-04T15:47:49;19.60;61.70
43995;DHT22;51687;52.160;5.298;2022-10-04T15:58:54;19.60;62.30
43995;DHT22;51687;52.160;5.298;2022-10-04T16:10:14;19.70;61.70
43995;DHT22;51687;52.160;5.298;2022-10-04T16:15:35;19.60;61.90
43995;DHT22;51687;52.160;5.298;2022-10-04T16:18:27;19.60;62.20
43995;DHT22;51687;52.160;5.298;2022-10-04T16:21:25;19.60;62.30
43995;DHT22;51687;52.160;5.298;2022-10-04T16:29:33;19.50;63.30
43995;DHT22;51687;52.160;5.298;2022-10-04T16:34:44;19.40;63.40
43995;DHT22;51687;52.160;5.298;2022-10-04T16:37:37;19.40;63.70
43995;DHT22;51687;52.160;5.298;2022-10-04T16:45:48;19.40;63.90
43995;DHT22;51687;52.160;5.298;2022-10-04T16:48:36;19.50;63.50
43995;DHT22;51687;52.160;5.298;2022-10-04T16:53:58;19.50;63.50
43995;DHT22;51687;52.160;5.298;2022-10-04T16:57:08;19.50;63.80
43995;DHT22;51687;52.160;5.298;2022-10-04T16:59:50;19.50;64.30
43995;DHT22;51687;52.160;5.298;2022-10-04T17:02:37;19.50;63.70
43995;DHT22;51687;52.160;5.298;2022-10-04T17:05:28;19.50;63.30
43995;DHT22;51687;52.160;5.298;2022-10-04T17:15:48;19.50;64.20
43995;DHT22;51687;52.160;5.298;2022-10-04T17:21:01;19.50;63.70
43995;DHT22;51687;52.160;5.298;2022-10-04T17:24:07;19.50;64.30
43995;DHT22;51687;52.160;5.298;2022-10-04T17:26:44;19.50;63.70
43995;DHT22;51687;52.160;5.298;2022-10-04T17:32:21;19.40;63.70
43995;DHT22;51687;52.160;5.298;2022-10-04T17:47:03;19.40;63.80
43995;DHT22;51687;52.160;5.298;2022-10-04T17:52:44;19.40;64.10
43995;DHT22;51687;52.160;5.298;2022-10-04T17:55:55;19.30;63.80
43995;DHT22;51687;52.160;5.298;2022-10-04T17:58:55;19.30;63.90
43995;DHT22;51687;52.160;5.298;2022-10-04T18:01:30;19.30;64.00
43995;DHT22;51687;52.160;5.298;2022-10-04T18:07:07;19.30;64.20
43995;DHT22;51687;52.160;5.298;2022-10-04T18:09:44;19.30;64.10
43995;DHT22;51687;52.160;5.298;2022-10-04T18:12:50;19.30;64.30
43995;DHT22;51687;52.160;5.298;2022-10-04T18:15:26;19.30;64.20
43995;DHT22;51687;52.160;5.298;2022-10-04T18:20:43;19.30;64.40
43995;DHT22;51687;52.160;5.298;2022-10-04T18:23:31;19.20;64.30
43995;DHT22;51687;52.160;5.298;2022-10-04T18:26:09;19.20;64.50
43995;DHT22;51687;52.160;5.298;2022-10-04T18:28:37;19.20;64.70
43995;DHT22;51687;52.160;5.298;2022-10-04T18:33:50;19.20;64.60
43995;DHT22;51687;52.160;5.298;2022-10-04T18:36:24;19.20;64.70
43995;DHT22;51687;52.160;5.298;2022-10-04T18:41:29;19.20;64.80
43995;DHT22;51687;52.160;5.298;2022-10-04T18:44:18;19.20;64.70
43995;DHT22;51687;52.160;5.298;2022-10-04T18:46:46;19.20;64.80
43995;DHT22;51687;52.160;5.298;2022-10-04T18:49:20;19.20;64.90
43995;DHT22;51687;52.160;5.298;2022-10-04T18:52:30;19.20;65.10
43995;DHT22;51687;52.160;5.298;2022-10-04T18:57:46;19.20;65.10
43995;DHT22;51687;52.160;5.298;2022-10-04T19:00:39;19.20;65.00
43995;DHT22;51687;52.160;5.298;2022-10-04T19:03:56;19.20;65.10
43995;DHT22;51687;52.160;5.298;2022-10-04T19:06:31;19.20;65.20
43995;DHT22;51687;52.160;5.298;2022-10-04T19:09:13;19.20;65.40
43995;DHT22;51687;52.160;5.298;2022-10-04T19:12:04;19.10;65.20
43995;DHT22;51687;52.160;5.298;2022-10-04T19:17:27;19.10;65.30
43995;DHT22;51687;52.160;5.298;2022-10-04T19:20:02;19.10;65.30
43995;DHT22;51687;52.160;5.298;2022-10-04T19:31:23;19.10;65.80
43995;DHT22;51687;52.160;5.298;2022-10-04T19:34:03;19.10;65.60
43995;DHT22;51687;52.160;5.298;2022-10-04T19:42:11;19.10;65.90
43995;DHT22;51687;52.160;5.298;2022-10-04T19:47:46;19.00;65.70
43995;DHT22;51687;52.160;5.298;2022-10-04T19:50:18;19.00;65.50
43995;DHT22;51687;52.160;5.298;2022-10-04T19:52:47;19.00;65.60
43995;DHT22;51687;52.160;5.298;2022-10-04T20:00:55;19.00;65.50
43995;DHT22;51687;52.160;5.298;2022-10-04T20:03:22;19.00;65.50
43995;DHT22;51687;52.160;5.298;2022-10-04T20:05:51;19.00;65.50
43995;DHT22;51687;52.160;5.298;2022-10-04T20:08:56;19.00;65.50
43995;DHT22;51687;52.160;5.298;2022-10-04T20:19:48;18.90;65.60
43995;DHT22;51687;52.160;5.298;2022-10-04T20:34:54;18.90;65.40
43995;DHT22;51687;52.160;5.298;2022-10-04T20:40:54;18.90;65.10
43995;DHT22;51687;52.160;5.298;2022-10-04T20:45:50;18.90;65.20
43995;DHT22;51687;52.160;5.298;2022-10-04T20:48:21;18.90;65.10
43995;DHT22;51687;52.160;5.298;2022-10-04T20:50:48;18.90;65.40
43995;DHT22;51687;52.160;5.298;2022-10-04T20:53:27;18.90;65.40
43995;DHT22;51687;52.160;5.298;2022-10-04T20:56:21;18.90;65.60
43995;DHT22;51687;52.160;5.298;2022-10-04T20:58:56;18.90;65.40
43995;DHT22;51687;52.160;5.298;2022-10-04T21:01:29;18.80;65.40
43995;DHT22;51687;52.160;5.298;2022-10-04T21:04:26;18.90;65.50
43995;DHT22;51687;52.160;5.298;2022-10-04T21:07:03;18.90;65.60
43995;DHT22;51687;52.160;5.298;2022-10-04T21:09:33;18.80;65.80
43995;DHT22;51687;52.160;5.298;2022-10-04T21:12:01;18.80;65.70
43995;DHT22;51687;52.160;5.298;2022-10-04T21:14:32;18.90;65.60
43995;DHT22;51687;52.160;5.298;2022-10-04T21:17:00;18.80;65.50
43995;DHT22;51687;52.160;5.298;2022-10-04T21:22:02;18.80;65.80
43995;DHT22;51687;52.160;5.298;2022-10-04T21:27:36;18.80;65.90
43995;DHT22;51687;52.160;5.298;2022-10-04T21:30:11;18.80;65.70
43995;DHT22;51687;52.160;5.298;2022-10-04T21:32:38;18.80;65.60
43995;DHT22;51687;52.160;5.298;2022-10-04T21:35:06;18.80;65.60
43995;DHT22;51687;52.160;5.298;2022-10-04T21:37:34;18.80;65.70
43995;DHT22;51687;52.160;5.298;2022-10-04T21:40:02;18.80;65.70
43995;DHT22;51687;52.160;5.298;2022-10-04T21:42:29;18.80;65.80
43995;DHT22;51687;52.160;5.298;2022-10-04T21:44:55;18.80;65.70
43995;DHT22;51687;52.160;5.298;2022-10-04T21:47:23;18.80;65.60
43995;DHT22;51687;52.160;5.298;2022-10-04T21:49:51;18.70;65.50
43995;DHT22;51687;52.160;5.298;2022-10-04T21:52:19;18.70;65.60
43995;DHT22;51687;52.160;5.298;2022-10-04T21:54:46;18.80;65.60
43995;DHT22;51687;52.160;5.298;2022-10-04T21:57:12;18.80;65.90
43995;DHT22;51687;52.160;5.298;2022-10-04T21:59:39;18.80;65.90
43995;DHT22;51687;52.160;5.298;2022-10-04T22:02:06;18.70;65.80
43995;DHT22;51687;52.160;5.298;2022-10-04T22:04:33;18.70;65.90
43995;DHT22;51687;52.160;5.298;2022-10-04T22:07:00;18.80;66.10
43995;DHT22;51687;52.160;5.298;2022-10-04T22:09:27;18.80;66.10
43995;DHT22;51687;52.160;5.298;2022-10-04T22:11:54;18.70;66.20
43995;DHT22;51687;52.160;5.298;2022-10-04T22:14:21;18.80;66.20
43995;DHT22;51687;52.160;5.298;2022-10-04T22:16:48;18.80;66.30
43995;DHT22;51687;52.160;5.298;2022-10-04T22:19:16;18.80;66.40
43995;DHT22;51687;52.160;5.298;2022-10-04T22:21:42;18.70;66.20
43995;DHT22;51687;52.160;5.298;2022-10-04T22:24:15;18.70;66.20
43995;DHT22;51687;52.160;5.298;2022-10-04T22:26:43;18.80;66.30
43995;DHT22;51687;52.160;5.298;2022-10-04T22:29:15;18.80;66.30
43995;DHT22;51687;52.160;5.298;2022-10-04T22:31:51;18.80;66.10
43995;DHT22;51687;52.160;5.298;2022-10-04T22:34:20;18.80;66.30
43995;DHT22;51687;52.160;5.298;2022-10-04T22:36:48;18.80;66.40
43995;DHT22;51687;52.160;5.298;2022-10-04T22:39:18;18.80;66.30
43995;DHT22;51687;52.160;5.298;2022-10-04T22:41:54;18.80;66.30
43995;DHT22;51687;52.160;5.298;2022-10-04T22:44:31;18.80;66.20
43995;DHT22;51687;52.160;5.298;2022-10-04T22:47:02;18.80;66.10
43995;DHT22;51687;52.160;5.298;2022-10-04T22:49:33;18.70;66.40
43995;DHT22;51687;52.160;5.298;2022-10-04T22:52:04;18.70;66.40
43995;DHT22;51687;52.160;5.298;2022-10-04T22:54:33;18.70;66.30
43995;DHT22;51687;52.160;5.298;2022-10-04T22:57:00;18.80;66.40
43995;DHT22;51687;52.160;5.298;2022-10-04T22:59:38;18.80;66.40
43995;DHT22;51687;52.160;5.298;2022-10-04T23:02:16;18.70;66.60
43995;DHT22;51687;52.160;5.298;2022-10-04T23:04:49;18.70;66.60
43995;DHT22;51687;52.160;5.298;2022-10-04T23:07:17;18.70;66.50
43995;DHT22;51687;52.160;5.298;2022-10-04T23:09:44;18.70;66.40
43995;DHT22;51687;52.160;5.298;2022-10-04T23:12:11;18.70;66.40
43995;DHT22;51687;52.160;5.298;2022-10-04T23:14:38;18.70;66.50
43995;DHT22;51687;52.160;5.298;2022-10-04T23:17:25;18.70;66.40
43995;DHT22;51687;52.160;5.298;2022-10-04T23:20:17;18.70;66.50
43995;DHT22;51687;52.160;5.298;2022-10-04T23:22:51;18.70;66.50
43995;DHT22;51687;52.160;5.298;2022-10-04T23:25:26;18.70;66.60
43995;DHT22;51687;52.160;5.298;2022-10-04T23:28:00;18.70;66.60
43995;DHT22;51687;52.160;5.298;2022-10-04T23:30:27;18.70;66.50
43995;DHT22;51687;52.160;5.298;2022-10-04T23:32:56;18.70;66.50
43995;DHT22;51687;52.160;5.298;2022-10-04T23:35:29;18.70;66.60
43995;DHT22;51687;52.160;5.298;2022-10-04T23:37:56;18.70;66.60
43995;DHT22;51687;52.160;5.298;2022-10-04T23:40:24;18.70;66.50
43995;DHT22;51687;52.160;5.298;2022-10-04T23:42:53;18.70;66.60
43995;DHT22;51687;52.160;5.298;2022-10-04T23:45:23;18.70;66.60
43995;DHT22;51687;52.160;5.298;2022-10-04T23:47:53;18.70;66.60
43995;DHT22;51687;52.160;5.298;2022-10-04T23:50:35;18.70;66.70
43995;DHT22;51687;52.160;5.298;2022-10-04T23:53:05;18.70;66.80
43995;DHT22;51687;52.160;5.298;2022-10-04T23:55:39;18.70;66.70
43995;DHT22;51687;52.160;5.298;2022-10-04T23:58:18;18.70;66.70
